Search for airport 
image banner adimage banner adimage banner ad
image banner ad

NV25 - St Rose Dominican Hospital

Located in Henderson, United States

ICAO - NV25, IATA -

Data provided by Airmate  

General information

Coordinates: N36°0'13" W115°6'53"
Elevation is 1890 feet MSL.
Magnetic variation is 14° East
View others Airports in Nevada

Operational data

Special qualification required
Current time UTC:
Current local time:
Weather at : KHND - Henderson Executive ( 4 km )
METAR: KHND 131056Z AUTO 00000KT 10SM CLR 25/M07 A2985 RMK AO2 SLP090 T02501067
TAF: KHND 130520Z 1306/1406 19010KT P6SM FEW250 FM131200 VRB05KT P6SM FEW250 FM132100 20015G25KT P6SM SKC
View NOTAMs / SUP AIP / TFR affecting this airport [VIEW]
Communications frequencies: [VIEW]

Runways:

Airport contact information

Address: Henderson United States

Satellite view of NV25